Terminal Aerodrome Forecast
Issued by NWS Twin Cities, MN

Home | Current Version | Previous Version | Graphics & Text | Print | Product List | Glossary On
Versions: 1 2 3 4 5 6 7 8 9 10 11 12 13 14 15 16 17 18 19 20
276
FTUS43 KMPX 170523
TAFEAU
TAF
KEAU 170523Z 1706/1806 04005KT 2SM -FZRA BR OVC007
     FM170900 02003KT 2SM -SN BR OVC005
     FM171200 01004KT 3SM BR OVC004
     FM171500 33005KT 5SM BR BKN012
     FM172000 30005KT P6SM BKN040
     FM180400 25004KT P6SM SCT040 SCT150=

USA.gov is the U.S. government's official web portal to all federal, state and local government web resources and services.